sensor_id;sensor_type;location;lat;lon;timestamp;P1;durP1;ratioP1;P2;durP2;ratioP2
9597;SDS011;4837;50.890;4.724;2024-01-30T00:00:11;5.95;;;4.50;;
9597;SDS011;4837;50.890;4.724;2024-01-30T00:02:37;6.35;;;4.32;;
9597;SDS011;4837;50.890;4.724;2024-01-30T00:05:03;6.20;;;4.20;;
9597;SDS011;4837;50.890;4.724;2024-01-30T00:07:30;6.50;;;5.15;;
9597;SDS011;4837;50.890;4.724;2024-01-30T00:09:56;7.05;;;4.90;;
9597;SDS011;4837;50.890;4.724;2024-01-30T00:12:24;6.32;;;4.50;;
9597;SDS011;4837;50.890;4.724;2024-01-30T00:14:51;6.88;;;4.95;;
9597;SDS011;4837;50.890;4.724;2024-01-30T00:17:17;6.75;;;4.75;;
9597;SDS011;4837;50.890;4.724;2024-01-30T00:19:46;5.63;;;4.88;;
9597;SDS011;4837;50.890;4.724;2024-01-30T00:22:12;5.82;;;4.57;;
9597;SDS011;4837;50.890;4.724;2024-01-30T00:24:41;6.72;;;4.43;;
9597;SDS011;4837;50.890;4.724;2024-01-30T00:27:08;5.95;;;4.45;;
9597;SDS011;4837;50.890;4.724;2024-01-30T00:29:34;7.60;;;4.63;;
9597;SDS011;4837;50.890;4.724;2024-01-30T00:32:00;5.63;;;4.25;;
9597;SDS011;4837;50.890;4.724;2024-01-30T00:34:26;5.63;;;4.40;;
9597;SDS011;4837;50.890;4.724;2024-01-30T00:36:55;6.30;;;4.60;;
9597;SDS011;4837;50.890;4.724;2024-01-30T00:39:22;6.40;;;4.40;;
9597;SDS011;4837;50.890;4.724;2024-01-30T00:41:48;6.88;;;4.70;;
9597;SDS011;4837;50.890;4.724;2024-01-30T00:44:17;5.15;;;4.38;;
9597;SDS011;4837;50.890;4.724;2024-01-30T00:46:43;5.78;;;4.28;;
9597;SDS011;4837;50.890;4.724;2024-01-30T00:49:10;6.45;;;4.70;;
9597;SDS011;4837;50.890;4.724;2024-01-30T00:51:36;6.07;;;4.50;;
9597;SDS011;4837;50.890;4.724;2024-01-30T00:54:02;5.18;;;3.95;;
9597;SDS011;4837;50.890;4.724;2024-01-30T00:56:31;6.85;;;4.50;;
9597;SDS011;4837;50.890;4.724;2024-01-30T00:58:58;5.75;;;4.45;;
9597;SDS011;4837;50.890;4.724;2024-01-30T01:01:24;5.90;;;4.40;;
9597;SDS011;4837;50.890;4.724;2024-01-30T01:03:53;5.90;;;4.15;;
9597;SDS011;4837;50.890;4.724;2024-01-30T01:06:19;6.88;;;4.88;;
9597;SDS011;4837;50.890;4.724;2024-01-30T01:08:46;6.95;;;4.20;;
9597;SDS011;4837;50.890;4.724;2024-01-30T01:11:12;7.25;;;4.65;;
9597;SDS011;4837;50.890;4.724;2024-01-30T01:13:38;6.50;;;4.40;;
9597;SDS011;4837;50.890;4.724;2024-01-30T01:16:07;6.22;;;4.28;;
9597;SDS011;4837;50.890;4.724;2024-01-30T01:18:33;5.15;;;4.38;;
9597;SDS011;4837;50.890;4.724;2024-01-30T01:20:59;4.78;;;4.07;;
9597;SDS011;4837;50.890;4.724;2024-01-30T01:23:26;7.22;;;4.28;;
9597;SDS011;4837;50.890;4.724;2024-01-30T01:25:55;5.72;;;4.13;;
9597;SDS011;4837;50.890;4.724;2024-01-30T01:28:21;5.65;;;4.28;;
9597;SDS011;4837;50.890;4.724;2024-01-30T01:30:47;7.72;;;4.07;;
9597;SDS011;4837;50.890;4.724;2024-01-30T01:33:13;7.47;;;4.50;;
9597;SDS011;4837;50.890;4.724;2024-01-30T01:35:42;6.35;;;4.50;;
9597;SDS011;4837;50.890;4.724;2024-01-30T01:38:10;6.43;;;4.15;;
9597;SDS011;4837;50.890;4.724;2024-01-30T01:40:36;5.25;;;4.47;;
9597;SDS011;4837;50.890;4.724;2024-01-30T01:43:04;5.93;;;4.47;;
9597;SDS011;4837;50.890;4.724;2024-01-30T01:45:31;5.53;;;4.03;;
9597;SDS011;4837;50.890;4.724;2024-01-30T01:47:57;5.00;;;4.05;;
9597;SDS011;4837;50.890;4.724;2024-01-30T01:50:23;6.75;;;4.63;;
9597;SDS011;4837;50.890;4.724;2024-01-30T01:52:50;5.72;;;3.97;;
9597;SDS011;4837;50.890;4.724;2024-01-30T01:55:16;7.22;;;4.20;;
9597;SDS011;4837;50.890;4.724;2024-01-30T01:57:44;5.75;;;4.57;;
9597;SDS011;4837;50.890;4.724;2024-01-30T02:00:10;6.38;;;4.45;;
9597;SDS011;4837;50.890;4.724;2024-01-30T02:02:37;6.72;;;4.20;;
9597;SDS011;4837;50.890;4.724;2024-01-30T02:05:04;7.05;;;4.63;;
9597;SDS011;4837;50.890;4.724;2024-01-30T02:07:31;6.47;;;4.40;;
9597;SDS011;4837;50.890;4.724;2024-01-30T02:09:57;6.72;;;4.07;;
9597;SDS011;4837;50.890;4.724;2024-01-30T02:12:23;6.43;;;4.38;;
9597;SDS011;4837;50.890;4.724;2024-01-30T02:14:49;7.28;;;4.30;;
9597;SDS011;4837;50.890;4.724;2024-01-30T02:17:16;8.05;;;4.40;;
9597;SDS011;4837;50.890;4.724;2024-01-30T02:19:42;8.13;;;4.40;;
9597;SDS011;4837;50.890;4.724;2024-01-30T02:22:08;5.13;;;4.07;;
9597;SDS011;4837;50.890;4.724;2024-01-30T02:24:35;5.13;;;4.25;;
9597;SDS011;4837;50.890;4.724;2024-01-30T02:27:03;5.60;;;4.30;;
9597;SDS011;4837;50.890;4.724;2024-01-30T02:29:30;6.30;;;3.90;;
9597;SDS011;4837;50.890;4.724;2024-01-30T02:31:58;5.38;;;4.10;;
9597;SDS011;4837;50.890;4.724;2024-01-30T02:34:24;6.43;;;4.30;;
9597;SDS011;4837;50.890;4.724;2024-01-30T02:36:51;6.57;;;4.50;;
9597;SDS011;4837;50.890;4.724;2024-01-30T02:39:17;7.03;;;4.90;;
9597;SDS011;4837;50.890;4.724;2024-01-30T02:41:43;7.05;;;4.38;;
9597;SDS011;4837;50.890;4.724;2024-01-30T02:44:09;4.65;;;3.97;;
9597;SDS011;4837;50.890;4.724;2024-01-30T02:46:35;6.25;;;4.10;;
9597;SDS011;4837;50.890;4.724;2024-01-30T02:49:01;6.05;;;4.38;;
9597;SDS011;4837;50.890;4.724;2024-01-30T02:51:28;6.25;;;3.95;;
9597;SDS011;4837;50.890;4.724;2024-01-30T02:53:54;4.78;;;4.03;;
9597;SDS011;4837;50.890;4.724;2024-01-30T02:56:20;10.00;;;4.72;;
9597;SDS011;4837;50.890;4.724;2024-01-30T02:58:48;7.68;;;4.38;;
9597;SDS011;4837;50.890;4.724;2024-01-30T03:01:15;6.13;;;4.30;;
9597;SDS011;4837;50.890;4.724;2024-01-30T03:03:41;6.28;;;4.90;;
9597;SDS011;4837;50.890;4.724;2024-01-30T03:06:08;7.45;;;5.00;;
9597;SDS011;4837;50.890;4.724;2024-01-30T03:08:34;8.25;;;5.57;;
9597;SDS011;4837;50.890;4.724;2024-01-30T03:11:01;8.23;;;5.15;;
9597;SDS011;4837;50.890;4.724;2024-01-30T03:13:27;7.43;;;5.20;;
9597;SDS011;4837;50.890;4.724;2024-01-30T03:15:53;9.55;;;5.30;;
9597;SDS011;4837;50.890;4.724;2024-01-30T03:18:20;7.80;;;5.15;;
9597;SDS011;4837;50.890;4.724;2024-01-30T03:20:46;8.52;;;4.90;;
9597;SDS011;4837;50.890;4.724;2024-01-30T03:23:12;6.35;;;4.68;;
9597;SDS011;4837;50.890;4.724;2024-01-30T03:25:38;6.20;;;4.30;;
9597;SDS011;4837;50.890;4.724;2024-01-30T03:28:04;8.35;;;4.65;;
9597;SDS011;4837;50.890;4.724;2024-01-30T03:30:31;7.25;;;4.57;;
9597;SDS011;4837;50.890;4.724;2024-01-30T03:32:57;6.88;;;4.50;;
9597;SDS011;4837;50.890;4.724;2024-01-30T03:35:26;7.35;;;4.53;;
9597;SDS011;4837;50.890;4.724;2024-01-30T03:37:56;6.18;;;4.45;;
9597;SDS011;4837;50.890;4.724;2024-01-30T03:40:25;6.28;;;4.65;;
9597;SDS011;4837;50.890;4.724;2024-01-30T03:42:51;7.72;;;4.85;;
9597;SDS011;4837;50.890;4.724;2024-01-30T03:45:17;7.13;;;4.60;;
9597;SDS011;4837;50.890;4.724;2024-01-30T03:47:44;7.05;;;4.53;;
9597;SDS011;4837;50.890;4.724;2024-01-30T03:50:10;7.60;;;4.80;;
9597;SDS011;4837;50.890;4.724;2024-01-30T03:52:36;6.35;;;4.18;;
9597;SDS011;4837;50.890;4.724;2024-01-30T03:55:03;7.10;;;4.70;;
9597;SDS011;4837;50.890;4.724;2024-01-30T03:57:29;6.20;;;4.47;;
9597;SDS011;4837;50.890;4.724;2024-01-30T03:59:55;6.22;;;4.40;;
9597;SDS011;4837;50.890;4.724;2024-01-30T04:02:21;6.70;;;4.40;;
9597;SDS011;4837;50.890;4.724;2024-01-30T04:04:47;6.78;;;4.60;;
9597;SDS011;4837;50.890;4.724;2024-01-30T04:07:16;7.50;;;4.65;;
9597;SDS011;4837;50.890;4.724;2024-01-30T04:09:42;7.22;;;4.90;;
9597;SDS011;4837;50.890;4.724;2024-01-30T04:12:08;6.82;;;4.90;;
9597;SDS011;4837;50.890;4.724;2024-01-30T04:14:34;8.13;;;4.22;;
9597;SDS011;4837;50.890;4.724;2024-01-30T04:17:00;8.68;;;4.47;;
9597;SDS011;4837;50.890;4.724;2024-01-30T04:19:26;9.85;;;4.78;;
9597;SDS011;4837;50.890;4.724;2024-01-30T04:21:52;7.68;;;4.90;;
9597;SDS011;4837;50.890;4.724;2024-01-30T04:24:18;10.38;;;5.22;;
9597;SDS011;4837;50.890;4.724;2024-01-30T04:26:45;6.45;;;4.28;;
9597;SDS011;4837;50.890;4.724;2024-01-30T04:29:11;5.97;;;4.32;;
9597;SDS011;4837;50.890;4.724;2024-01-30T04:31:37;7.78;;;4.68;;
9597;SDS011;4837;50.890;4.724;2024-01-30T04:34:03;7.32;;;5.18;;
9597;SDS011;4837;50.890;4.724;2024-01-30T04:36:29;8.15;;;4.72;;
9597;SDS011;4837;50.890;4.724;2024-01-30T04:38:55;7.18;;;4.60;;
9597;SDS011;4837;50.890;4.724;2024-01-30T04:41:21;7.07;;;4.78;;
9597;SDS011;4837;50.890;4.724;2024-01-30T04:43:48;8.00;;;4.53;;
9597;SDS011;4837;50.890;4.724;2024-01-30T04:46:14;7.20;;;5.03;;
9597;SDS011;4837;50.890;4.724;2024-01-30T04:48:42;7.00;;;4.80;;
9597;SDS011;4837;50.890;4.724;2024-01-30T04:51:08;6.43;;;4.82;;
9597;SDS011;4837;50.890;4.724;2024-01-30T04:53:34;6.57;;;4.80;;
9597;SDS011;4837;50.890;4.724;2024-01-30T04:56:00;6.85;;;4.88;;
9597;SDS011;4837;50.890;4.724;2024-01-30T04:58:26;8.57;;;4.88;;
9597;SDS011;4837;50.890;4.724;2024-01-30T05:00:53;7.80;;;4.75;;
9597;SDS011;4837;50.890;4.724;2024-01-30T05:03:19;8.73;;;4.82;;
9597;SDS011;4837;50.890;4.724;2024-01-30T05:05:47;5.88;;;4.72;;
9597;SDS011;4837;50.890;4.724;2024-01-30T05:08:14;6.50;;;5.05;;
9597;SDS011;4837;50.890;4.724;2024-01-30T05:10:40;8.73;;;4.78;;
9597;SDS011;4837;50.890;4.724;2024-01-30T05:13:06;6.25;;;4.95;;
9597;SDS011;4837;50.890;4.724;2024-01-30T05:15:38;8.90;;;4.80;;
9597;SDS011;4837;50.890;4.724;2024-01-30T05:18:04;8.65;;;5.15;;
9597;SDS011;4837;50.890;4.724;2024-01-30T05:20:33;7.38;;;4.85;;
9597;SDS011;4837;50.890;4.724;2024-01-30T05:22:59;6.13;;;5.00;;
9597;SDS011;4837;50.890;4.724;2024-01-30T05:25:25;6.57;;;4.78;;
9597;SDS011;4837;50.890;4.724;2024-01-30T05:27:51;8.90;;;5.15;;
9597;SDS011;4837;50.890;4.724;2024-01-30T05:30:18;7.82;;;5.00;;
9597;SDS011;4837;50.890;4.724;2024-01-30T05:32:44;5.78;;;4.80;;
9597;SDS011;4837;50.890;4.724;2024-01-30T05:35:10;8.30;;;4.60;;
9597;SDS011;4837;50.890;4.724;2024-01-30T05:37:36;8.02;;;4.88;;
9597;SDS011;4837;50.890;4.724;2024-01-30T05:40:02;7.78;;;4.60;;
9597;SDS011;4837;50.890;4.724;2024-01-30T05:42:29;9.93;;;5.15;;
9597;SDS011;4837;50.890;4.724;2024-01-30T05:44:55;6.75;;;5.00;;
9597;SDS011;4837;50.890;4.724;2024-01-30T05:47:22;7.50;;;4.78;;
9597;SDS011;4837;50.890;4.724;2024-01-30T05:49:52;7.78;;;4.85;;
9597;SDS011;4837;50.890;4.724;2024-01-30T05:52:18;8.27;;;5.32;;
9597;SDS011;4837;50.890;4.724;2024-01-30T05:54:44;6.13;;;4.80;;
9597;SDS011;4837;50.890;4.724;2024-01-30T05:57:10;10.27;;;5.07;;
9597;SDS011;4837;50.890;4.724;2024-01-30T05:59:37;6.35;;;5.05;;
9597;SDS011;4837;50.890;4.724;2024-01-30T06:02:03;8.07;;;4.50;;
9597;SDS011;4837;50.890;4.724;2024-01-30T06:04:29;6.90;;;5.22;;
9597;SDS011;4837;50.890;4.724;2024-01-30T06:06:55;8.75;;;4.72;;
9597;SDS011;4837;50.890;4.724;2024-01-30T06:09:21;8.10;;;4.90;;
9597;SDS011;4837;50.890;4.724;2024-01-30T06:11:47;7.15;;;4.70;;
9597;SDS011;4837;50.890;4.724;2024-01-30T06:14:16;7.65;;;5.05;;
9597;SDS011;4837;50.890;4.724;2024-01-30T06:16:42;8.82;;;5.00;;
9597;SDS011;4837;50.890;4.724;2024-01-30T06:19:08;6.28;;;5.03;;
9597;SDS011;4837;50.890;4.724;2024-01-30T06:21:34;8.93;;;5.30;;
9597;SDS011;4837;50.890;4.724;2024-01-30T06:24:03;6.72;;;4.82;;
9597;SDS011;4837;50.890;4.724;2024-01-30T06:26:29;8.27;;;4.80;;
9597;SDS011;4837;50.890;4.724;2024-01-30T06:28:56;6.80;;;4.90;;
9597;SDS011;4837;50.890;4.724;2024-01-30T06:31:22;5.60;;;5.00;;
9597;SDS011;4837;50.890;4.724;2024-01-30T06:33:48;7.15;;;4.80;;
9597;SDS011;4837;50.890;4.724;2024-01-30T06:36:14;10.15;;;5.45;;
9597;SDS011;4837;50.890;4.724;2024-01-30T06:38:41;6.88;;;5.25;;
9597;SDS011;4837;50.890;4.724;2024-01-30T06:41:07;7.50;;;5.43;;
9597;SDS011;4837;50.890;4.724;2024-01-30T06:43:33;9.45;;;5.57;;
9597;SDS011;4837;50.890;4.724;2024-01-30T06:46:00;10.30;;;5.93;;
9597;SDS011;4837;50.890;4.724;2024-01-30T06:48:26;8.93;;;5.30;;
9597;SDS011;4837;50.890;4.724;2024-01-30T06:50:57;9.20;;;5.75;;
9597;SDS011;4837;50.890;4.724;2024-01-30T06:53:23;10.18;;;6.38;;
9597;SDS011;4837;50.890;4.724;2024-01-30T06:55:51;9.43;;;5.32;;
9597;SDS011;4837;50.890;4.724;2024-01-30T06:58:17;10.60;;;5.70;;
9597;SDS011;4837;50.890;4.724;2024-01-30T07:00:43;8.73;;;5.63;;
9597;SDS011;4837;50.890;4.724;2024-01-30T07:03:09;10.88;;;6.57;;
9597;SDS011;4837;50.890;4.724;2024-01-30T07:05:35;9.73;;;6.22;;
9597;SDS011;4837;50.890;4.724;2024-01-30T07:08:01;11.13;;;6.68;;
9597;SDS011;4837;50.890;4.724;2024-01-30T07:10:28;11.27;;;6.32;;
9597;SDS011;4837;50.890;4.724;2024-01-30T07:12:54;14.85;;;7.70;;
9597;SDS011;4837;50.890;4.724;2024-01-30T07:15:20;9.75;;;5.90;;
9597;SDS011;4837;50.890;4.724;2024-01-30T07:17:46;9.75;;;6.20;;
9597;SDS011;4837;50.890;4.724;2024-01-30T07:20:12;11.68;;;7.10;;
9597;SDS011;4837;50.890;4.724;2024-01-30T07:22:38;9.73;;;5.90;;
9597;SDS011;4837;50.890;4.724;2024-01-30T07:25:04;14.93;;;6.75;;
9597;SDS011;4837;50.890;4.724;2024-01-30T07:27:30;10.65;;;6.25;;
9597;SDS011;4837;50.890;4.724;2024-01-30T07:29:56;11.20;;;5.85;;
9597;SDS011;4837;50.890;4.724;2024-01-30T07:32:23;11.05;;;6.25;;
9597;SDS011;4837;50.890;4.724;2024-01-30T07:34:49;10.32;;;5.95;;
9597;SDS011;4837;50.890;4.724;2024-01-30T07:37:15;12.15;;;6.80;;
9597;SDS011;4837;50.890;4.724;2024-01-30T07:39:41;11.10;;;6.65;;
9597;SDS011;4837;50.890;4.724;2024-01-30T07:42:08;10.45;;;6.53;;
9597;SDS011;4837;50.890;4.724;2024-01-30T07:44:34;13.38;;;6.70;;
9597;SDS011;4837;50.890;4.724;2024-01-30T07:47:00;12.90;;;6.38;;
9597;SDS011;4837;50.890;4.724;2024-01-30T07:49:26;8.65;;;6.22;;
9597;SDS011;4837;50.890;4.724;2024-01-30T07:51:52;10.05;;;6.25;;
9597;SDS011;4837;50.890;4.724;2024-01-30T07:54:18;9.32;;;5.78;;
9597;SDS011;4837;50.890;4.724;2024-01-30T07:56:45;12.18;;;6.13;;
9597;SDS011;4837;50.890;4.724;2024-01-30T07:59:11;8.15;;;6.03;;
9597;SDS011;4837;50.890;4.724;2024-01-30T08:01:37;9.93;;;5.80;;
9597;SDS011;4837;50.890;4.724;2024-01-30T08:04:03;10.73;;;6.32;;
9597;SDS011;4837;50.890;4.724;2024-01-30T08:06:29;8.88;;;6.25;;
9597;SDS011;4837;50.890;4.724;2024-01-30T08:08:55;13.80;;;7.13;;
9597;SDS011;4837;50.890;4.724;2024-01-30T08:11:23;11.88;;;6.55;;
9597;SDS011;4837;50.890;4.724;2024-01-30T08:13:51;10.95;;;6.00;;
9597;SDS011;4837;50.890;4.724;2024-01-30T08:16:17;9.52;;;5.63;;
9597;SDS011;4837;50.890;4.724;2024-01-30T08:18:44;10.88;;;6.45;;
9597;SDS011;4837;50.890;4.724;2024-01-30T08:21:10;9.02;;;5.63;;
9597;SDS011;4837;50.890;4.724;2024-01-30T08:23:37;10.38;;;5.95;;
9597;SDS011;4837;50.890;4.724;2024-01-30T08:26:03;9.63;;;6.28;;
9597;SDS011;4837;50.890;4.724;2024-01-30T08:28:30;8.52;;;5.30;;
9597;SDS011;4837;50.890;4.724;2024-01-30T08:30:56;8.02;;;5.40;;
9597;SDS011;4837;50.890;4.724;2024-01-30T08:33:22;10.45;;;6.80;;
9597;SDS011;4837;50.890;4.724;2024-01-30T08:35:48;7.32;;;5.38;;
9597;SDS011;4837;50.890;4.724;2024-01-30T08:38:14;9.60;;;5.90;;
9597;SDS011;4837;50.890;4.724;2024-01-30T08:40:40;7.75;;;5.50;;
9597;SDS011;4837;50.890;4.724;2024-01-30T08:43:06;10.27;;;5.90;;
9597;SDS011;4837;50.890;4.724;2024-01-30T08:45:35;8.80;;;5.65;;
9597;SDS011;4837;50.890;4.724;2024-01-30T08:48:01;8.73;;;5.78;;
9597;SDS011;4837;50.890;4.724;2024-01-30T08:50:27;9.88;;;6.20;;
9597;SDS011;4837;50.890;4.724;2024-01-30T08:52:53;9.32;;;6.05;;
9597;SDS011;4837;50.890;4.724;2024-01-30T08:55:19;10.25;;;5.55;;
9597;SDS011;4837;50.890;4.724;2024-01-30T08:57:45;11.43;;;6.30;;
9597;SDS011;4837;50.890;4.724;2024-01-30T09:00:12;8.82;;;5.90;;
9597;SDS011;4837;50.890;4.724;2024-01-30T09:02:38;9.95;;;6.00;;
9597;SDS011;4837;50.890;4.724;2024-01-30T09:05:04;9.55;;;5.88;;
9597;SDS011;4837;50.890;4.724;2024-01-30T09:07:30;8.52;;;5.88;;
9597;SDS011;4837;50.890;4.724;2024-01-30T09:09:56;10.73;;;6.40;;
9597;SDS011;4837;50.890;4.724;2024-01-30T09:12:22;9.10;;;5.88;;
9597;SDS011;4837;50.890;4.724;2024-01-30T09:14:48;9.10;;;5.90;;
9597;SDS011;4837;50.890;4.724;2024-01-30T09:17:14;9.63;;;5.68;;
9597;SDS011;4837;50.890;4.724;2024-01-30T09:19:41;11.65;;;5.63;;
9597;SDS011;4837;50.890;4.724;2024-01-30T09:22:07;10.55;;;5.97;;
9597;SDS011;4837;50.890;4.724;2024-01-30T09:24:33;10.02;;;5.78;;
9597;SDS011;4837;50.890;4.724;2024-01-30T09:26:59;9.20;;;5.93;;
9597;SDS011;4837;50.890;4.724;2024-01-30T09:29:25;9.32;;;5.75;;
9597;SDS011;4837;50.890;4.724;2024-01-30T09:31:52;9.13;;;6.20;;
9597;SDS011;4837;50.890;4.724;2024-01-30T09:34:18;9.85;;;5.50;;
9597;SDS011;4837;50.890;4.724;2024-01-30T09:36:44;7.70;;;5.72;;
9597;SDS011;4837;50.890;4.724;2024-01-30T09:39:10;12.13;;;6.28;;
9597;SDS011;4837;50.890;4.724;2024-01-30T09:41:40;7.82;;;5.25;;
9597;SDS011;4837;50.890;4.724;2024-01-30T09:44:08;9.45;;;6.15;;
9597;SDS011;4837;50.890;4.724;2024-01-30T09:46:34;10.13;;;6.20;;
9597;SDS011;4837;50.890;4.724;2024-01-30T09:49:00;8.15;;;6.20;;
9597;SDS011;4837;50.890;4.724;2024-01-30T09:51:28;9.65;;;6.32;;
9597;SDS011;4837;50.890;4.724;2024-01-30T09:53:55;11.63;;;6.60;;
9597;SDS011;4837;50.890;4.724;2024-01-30T09:56:21;12.43;;;6.13;;
9597;SDS011;4837;50.890;4.724;2024-01-30T09:58:47;10.02;;;6.32;;
9597;SDS011;4837;50.890;4.724;2024-01-30T10:01:13;11.13;;;6.82;;
9597;SDS011;4837;50.890;4.724;2024-01-30T10:03:43;9.73;;;6.25;;
9597;SDS011;4837;50.890;4.724;2024-01-30T10:06:10;7.90;;;5.82;;
9597;SDS011;4837;50.890;4.724;2024-01-30T10:08:36;8.43;;;6.15;;
9597;SDS011;4837;50.890;4.724;2024-01-30T10:11:02;10.82;;;6.50;;
9597;SDS011;4837;50.890;4.724;2024-01-30T10:13:29;9.85;;;6.30;;
9597;SDS011;4837;50.890;4.724;2024-01-30T10:15:55;10.90;;;6.30;;
9597;SDS011;4837;50.890;4.724;2024-01-30T10:18:23;8.07;;;5.85;;
9597;SDS011;4837;50.890;4.724;2024-01-30T10:20:49;10.10;;;6.60;;
9597;SDS011;4837;50.890;4.724;2024-01-30T10:23:15;10.48;;;6.75;;
9597;SDS011;4837;50.890;4.724;2024-01-30T10:25:41;11.23;;;7.22;;
9597;SDS011;4837;50.890;4.724;2024-01-30T10:28:07;14.55;;;7.07;;
9597;SDS011;4837;50.890;4.724;2024-01-30T10:30:34;12.52;;;6.95;;
9597;SDS011;4837;50.890;4.724;2024-01-30T10:33:00;12.25;;;7.07;;
9597;SDS011;4837;50.890;4.724;2024-01-30T10:35:26;10.65;;;6.78;;
9597;SDS011;4837;50.890;4.724;2024-01-30T10:37:52;13.18;;;7.70;;
9597;SDS011;4837;50.890;4.724;2024-01-30T10:40:18;12.18;;;7.63;;
9597;SDS011;4837;50.890;4.724;2024-01-30T10:42:45;13.80;;;8.00;;
9597;SDS011;4837;50.890;4.724;2024-01-30T10:45:12;13.73;;;7.40;;
9597;SDS011;4837;50.890;4.724;2024-01-30T10:47:52;11.52;;;8.15;;
9597;SDS011;4837;50.890;4.724;2024-01-30T10:50:19;16.40;;;8.00;;
9597;SDS011;4837;50.890;4.724;2024-01-30T10:52:45;12.07;;;8.35;;
9597;SDS011;4837;50.890;4.724;2024-01-30T10:55:12;11.85;;;7.97;;
9597;SDS011;4837;50.890;4.724;2024-01-30T10:57:38;14.77;;;8.80;;
9597;SDS011;4837;50.890;4.724;2024-01-30T11:00:10;13.48;;;8.23;;
9597;SDS011;4837;50.890;4.724;2024-01-30T11:02:45;13.20;;;8.70;;
9597;SDS011;4837;50.890;4.724;2024-01-30T11:05:12;15.15;;;7.40;;
9597;SDS011;4837;50.890;4.724;2024-01-30T11:07:41;11.75;;;7.30;;
9597;SDS011;4837;50.890;4.724;2024-01-30T11:10:07;11.65;;;7.85;;
9597;SDS011;4837;50.890;4.724;2024-01-30T11:12:39;11.65;;;7.97;;
9597;SDS011;4837;50.890;4.724;2024-01-30T11:15:10;8.50;;;6.20;;
9597;SDS011;4837;50.890;4.724;2024-01-30T11:22:58;8.35;;;6.15;;
9597;SDS011;4837;50.890;4.724;2024-01-30T11:25:27;10.13;;;6.75;;
9597;SDS011;4837;50.890;4.724;2024-01-30T11:27:54;9.88;;;5.88;;
9597;SDS011;4837;50.890;4.724;2024-01-30T11:30:30;10.75;;;6.03;;
9597;SDS011;4837;50.890;4.724;2024-01-30T11:33:10;9.10;;;5.65;;
9597;SDS011;4837;50.890;4.724;2024-01-30T11:35:43;9.82;;;5.40;;
9597;SDS011;4837;50.890;4.724;2024-01-30T11:38:18;10.38;;;5.05;;
9597;SDS011;4837;50.890;4.724;2024-01-30T11:40:47;10.23;;;4.90;;
9597;SDS011;4837;50.890;4.724;2024-01-30T11:43:14;7.97;;;4.60;;
9597;SDS011;4837;50.890;4.724;2024-01-30T11:45:41;7.47;;;4.10;;
9597;SDS011;4837;50.890;4.724;2024-01-30T11:48:08;9.70;;;5.40;;
9597;SDS011;4837;50.890;4.724;2024-01-30T11:50:35;8.25;;;4.80;;
9597;SDS011;4837;50.890;4.724;2024-01-30T11:53:04;7.57;;;4.00;;
9597;SDS011;4837;50.890;4.724;2024-01-30T11:55:30;8.05;;;3.75;;
9597;SDS011;4837;50.890;4.724;2024-01-30T11:57:56;8.55;;;3.70;;
9597;SDS011;4837;50.890;4.724;2024-01-30T12:00:23;7.43;;;3.45;;
9597;SDS011;4837;50.890;4.724;2024-01-30T12:02:50;6.03;;;3.15;;
9597;SDS011;4837;50.890;4.724;2024-01-30T12:05:18;4.50;;;2.58;;
9597;SDS011;4837;50.890;4.724;2024-01-30T12:07:45;4.28;;;2.50;;
9597;SDS011;4837;50.890;4.724;2024-01-30T12:10:12;4.80;;;2.50;;
9597;SDS011;4837;50.890;4.724;2024-01-30T12:12:42;3.88;;;2.30;;
9597;SDS011;4837;50.890;4.724;2024-01-30T12:15:09;4.97;;;2.20;;
9597;SDS011;4837;50.890;4.724;2024-01-30T12:17:35;3.83;;;2.40;;
9597;SDS011;4837;50.890;4.724;2024-01-30T12:20:05;3.40;;;1.80;;
9597;SDS011;4837;50.890;4.724;2024-01-30T12:22:53;3.00;;;1.80;;
9597;SDS011;4837;50.890;4.724;2024-01-30T12:25:20;2.92;;;1.60;;
9597;SDS011;4837;50.890;4.724;2024-01-30T12:27:49;3.67;;;1.33;;
9597;SDS011;4837;50.890;4.724;2024-01-30T12:30:16;2.92;;;1.55;;
9597;SDS011;4837;50.890;4.724;2024-01-30T12:32:43;2.92;;;1.30;;
9597;SDS011;4837;50.890;4.724;2024-01-30T12:35:10;2.80;;;1.10;;
9597;SDS011;4837;50.890;4.724;2024-01-30T12:37:36;4.50;;;1.00;;
9597;SDS011;4837;50.890;4.724;2024-01-30T12:40:02;3.20;;;0.90;;
9597;SDS011;4837;50.890;4.724;2024-01-30T12:42:28;2.58;;;0.77;;
9597;SDS011;4837;50.890;4.724;2024-01-30T12:44:56;1.58;;;1.00;;
9597;SDS011;4837;50.890;4.724;2024-01-30T12:47:23;1.63;;;0.85;;
9597;SDS011;4837;50.890;4.724;2024-01-30T12:49:49;1.67;;;1.10;;
9597;SDS011;4837;50.890;4.724;2024-01-30T12:52:18;2.33;;;0.98;;
9597;SDS011;4837;50.890;4.724;2024-01-30T12:54:45;4.43;;;0.82;;
9597;SDS011;4837;50.890;4.724;2024-01-30T12:57:11;3.63;;;1.15;;
9597;SDS011;4837;50.890;4.724;2024-01-30T12:59:37;1.50;;;0.80;;
9597;SDS011;4837;50.890;4.724;2024-01-30T13:02:04;1.88;;;0.88;;
9597;SDS011;4837;50.890;4.724;2024-01-30T13:04:30;2.88;;;0.77;;
9597;SDS011;4837;50.890;4.724;2024-01-30T13:06:56;2.25;;;0.80;;
9597;SDS011;4837;50.890;4.724;2024-01-30T13:09:23;3.03;;;0.80;;
9597;SDS011;4837;50.890;4.724;2024-01-30T13:11:50;3.75;;;0.98;;
9597;SDS011;4837;50.890;4.724;2024-01-30T13:14:16;1.50;;;0.70;;
9597;SDS011;4837;50.890;4.724;2024-01-30T13:16:43;1.48;;;0.95;;
9597;SDS011;4837;50.890;4.724;2024-01-30T13:19:09;2.85;;;0.90;;
9597;SDS011;4837;50.890;4.724;2024-01-30T13:21:35;3.15;;;0.98;;
9597;SDS011;4837;50.890;4.724;2024-01-30T13:24:01;3.13;;;0.93;;
9597;SDS011;4837;50.890;4.724;2024-01-30T13:26:27;1.73;;;0.82;;
9597;SDS011;4837;50.890;4.724;2024-01-30T13:28:53;2.13;;;0.95;;
9597;SDS011;4837;50.890;4.724;2024-01-30T13:31:19;3.00;;;0.98;;
9597;SDS011;4837;50.890;4.724;2024-01-30T13:33:46;3.38;;;1.10;;
9597;SDS011;4837;50.890;4.724;2024-01-30T13:36:12;3.05;;;1.00;;
9597;SDS011;4837;50.890;4.724;2024-01-30T13:38:38;2.83;;;0.90;;
9597;SDS011;4837;50.890;4.724;2024-01-30T13:41:04;4.50;;;1.20;;
9597;SDS011;4837;50.890;4.724;2024-01-30T13:43:30;3.63;;;0.93;;
9597;SDS011;4837;50.890;4.724;2024-01-30T13:45:56;2.58;;;1.00;;
9597;SDS011;4837;50.890;4.724;2024-01-30T13:48:22;3.05;;;0.80;;
9597;SDS011;4837;50.890;4.724;2024-01-30T13:50:48;5.53;;;2.50;;
9597;SDS011;4837;50.890;4.724;2024-01-30T13:53:15;3.55;;;1.67;;
9597;SDS011;4837;50.890;4.724;2024-01-30T13:55:41;6.00;;;1.52;;
9597;SDS011;4837;50.890;4.724;2024-01-30T13:58:10;4.18;;;1.20;;
9597;SDS011;4837;50.890;4.724;2024-01-30T14:00:36;2.47;;;0.95;;
9597;SDS011;4837;50.890;4.724;2024-01-30T14:03:03;1.48;;;1.05;;
9597;SDS011;4837;50.890;4.724;2024-01-30T14:05:29;4.65;;;1.00;;
9597;SDS011;4837;50.890;4.724;2024-01-30T14:07:56;4.07;;;1.00;;
9597;SDS011;4837;50.890;4.724;2024-01-30T14:10:23;4.32;;;1.20;;
9597;SDS011;4837;50.890;4.724;2024-01-30T14:12:49;5.65;;;1.10;;
9597;SDS011;4837;50.890;4.724;2024-01-30T14:15:18;3.63;;;1.52;;
9597;SDS011;4837;50.890;4.724;2024-01-30T14:17:44;3.10;;;1.10;;
9597;SDS011;4837;50.890;4.724;2024-01-30T14:20:13;5.30;;;1.00;;
9597;SDS011;4837;50.890;4.724;2024-01-30T14:22:41;8.23;;;1.17;;
9597;SDS011;4837;50.890;4.724;2024-01-30T14:25:10;3.25;;;0.93;;
9597;SDS011;4837;50.890;4.724;2024-01-30T14:27:37;4.93;;;1.00;;
9597;SDS011;4837;50.890;4.724;2024-01-30T14:30:03;4.30;;;1.23;;
9597;SDS011;4837;50.890;4.724;2024-01-30T14:32:29;4.45;;;0.95;;
9597;SDS011;4837;50.890;4.724;2024-01-30T14:34:59;3.30;;;1.10;;
9597;SDS011;4837;50.890;4.724;2024-01-30T14:37:25;3.65;;;1.08;;
9597;SDS011;4837;50.890;4.724;2024-01-30T14:39:54;4.18;;;1.10;;
9597;SDS011;4837;50.890;4.724;2024-01-30T14:42:20;5.35;;;1.10;;
9597;SDS011;4837;50.890;4.724;2024-01-30T14:44:49;3.88;;;1.05;;
9597;SDS011;4837;50.890;4.724;2024-01-30T14:47:15;3.58;;;1.10;;
9597;SDS011;4837;50.890;4.724;2024-01-30T14:49:41;3.17;;;1.08;;
9597;SDS011;4837;50.890;4.724;2024-01-30T14:52:08;4.40;;;1.20;;
9597;SDS011;4837;50.890;4.724;2024-01-30T14:54:36;4.68;;;1.30;;
9597;SDS011;4837;50.890;4.724;2024-01-30T14:57:05;3.35;;;1.30;;
9597;SDS011;4837;50.890;4.724;2024-01-30T14:59:31;3.00;;;1.20;;
9597;SDS011;4837;50.890;4.724;2024-01-30T15:01:58;1.77;;;0.82;;
9597;SDS011;4837;50.890;4.724;2024-01-30T15:04:24;3.53;;;1.27;;
9597;SDS011;4837;50.890;4.724;2024-01-30T15:06:50;3.38;;;0.95;;
9597;SDS011;4837;50.890;4.724;2024-01-30T15:09:16;3.38;;;1.00;;
9597;SDS011;4837;50.890;4.724;2024-01-30T15:11:43;3.17;;;1.02;;
9597;SDS011;4837;50.890;4.724;2024-01-30T15:14:10;1.85;;;0.90;;